Time;durP1;ratioP1;P1;durP2;ratioP2;P2;SDS_P1;SDS_P2;PMS_P1;PMS_P2;Temp;Humidity;BMP_temperature;BMP_pressure;BME280_temperature;BME280_humidity;BME280_pressure;Samples;Min_cycle;Max_cycle;Signal;HPM_P1;HPM_P2
2022/12/28 00:00:31;;;;;;;11.27;5.30;;;;;;;;;;5039454;28;20486;-67
2022/12/28 00:02:57;;;;;;;16.17;6.30;;;;;;;;;;5062263;28;20089;-67
2022/12/28 00:05:23;;;;;;;14.20;6.93;;;;;;;;;;5060218;28;20048;-67
2022/12/28 00:07:49;;;;;;;21.50;8.73;;;;;;;;;;5063597;28;20059;-67
2022/12/28 00:10:15;;;;;;;15.60;7.23;;;;;;;;;;5058417;28;20415;-67
2022/12/28 00:12:41;;;;;;;18.80;7.13;;;;;;;;;;5038845;28;20040;-67
2022/12/28 00:15:08;;;;;;;18.73;6.83;;;;;;;;;;5042211;28;20052;-68
2022/12/28 00:17:34;;;;;;;20.97;7.43;;;;;;;;;;5059762;28;20098;-67
2022/12/28 00:19:59;;;;;;;17.53;6.73;;;;;;;;;;5060694;28;20138;-67
2022/12/28 00:22:26;;;;;;;22.03;6.47;;;;;;;;;;5069295;28;20105;-67
2022/12/28 00:24:52;;;;;;;16.10;7.33;;;;;;;;;;5054094;28;20048;-67
2022/12/28 00:27:18;;;;;;;18.83;7.20;;;;;;;;;;5050587;28;20049;-67
2022/12/28 00:29:44;;;;;;;15.77;7.83;;;;;;;;;;5050526;28;20064;-68
2022/12/28 00:32:10;;;;;;;20.07;8.73;;;;;;;;;;5067494;28;20049;-67
2022/12/28 00:34:36;;;;;;;17.23;7.57;;;;;;;;;;5069390;28;20129;-67
2022/12/28 00:37:02;;;;;;;14.00;6.50;;;;;;;;;;5056052;28;20530;-67
2022/12/28 00:39:29;;;;;;;20.17;8.10;;;;;;;;;;5050096;28;20080;-67
2022/12/28 00:41:55;;;;;;;18.87;7.97;;;;;;;;;;5049140;28;20049;-68
2022/12/28 00:44:21;;;;;;;22.70;8.93;;;;;;;;;;5049000;28;20045;-67
2022/12/28 00:46:47;;;;;;;16.17;7.47;;;;;;;;;;5050336;28;20077;-67
2022/12/28 00:49:13;;;;;;;18.77;8.37;;;;;;;;;;5049372;28;20041;-67
2022/12/28 00:51:39;;;;;;;16.90;7.97;;;;;;;;;;5055619;28;20037;-67
2022/12/28 00:54:05;;;;;;;23.13;10.30;;;;;;;;;;5069925;28;20080;-67
2022/12/28 00:56:31;;;;;;;15.90;7.90;;;;;;;;;;5069165;28;20041;-67
2022/12/28 00:58:58;;;;;;;13.73;6.70;;;;;;;;;;5070038;28;20090;-67
2022/12/28 01:01:24;;;;;;;25.10;8.47;;;;;;;;;;5070264;28;20052;-67
2022/12/28 01:03:50;;;;;;;18.90;8.53;;;;;;;;;;5070044;28;20048;-67
2022/12/28 01:06:17;;;;;;;18.63;9.00;;;;;;;;;;5069567;28;20603;-67
2022/12/28 01:08:44;;;;;;;23.47;8.50;;;;;;;;;;5067981;28;20056;-66
2022/12/28 01:11:11;;;;;;;16.63;8.23;;;;;;;;;;5070171;28;20044;-67
2022/12/28 01:13:37;;;;;;;19.43;7.77;;;;;;;;;;5069269;28;20052;-66
2022/12/28 01:16:13;;;;;;;22.37;8.33;;;;;;;;;;5049540;28;20044;-67
2022/12/28 01:18:39;;;;;;;12.90;8.33;;;;;;;;;;5048799;28;20051;-67
2022/12/28 01:21:09;;;;;;;18.07;8.50;;;;;;;;;;5048232;28;20048;-67
2022/12/28 01:23:35;;;;;;;13.93;7.70;;;;;;;;;;5048298;28;20534;-67
2022/12/28 01:26:01;;;;;;;18.97;9.03;;;;;;;;;;5031235;28;20072;-67
2022/12/28 01:28:28;;;;;;;13.43;7.87;;;;;;;;;;5048373;28;20049;-67
2022/12/28 01:30:54;;;;;;;15.90;7.73;;;;;;;;;;5049576;28;20045;-67
2022/12/28 01:33:20;;;;;;;17.80;8.30;;;;;;;;;;5048943;28;20047;-67
2022/12/28 01:35:46;;;;;;;16.80;7.37;;;;;;;;;;5063256;28;20041;-67
2022/12/28 01:38:12;;;;;;;12.97;6.97;;;;;;;;;;5068791;28;20525;-66
2022/12/28 01:40:42;;;;;;;17.63;7.33;;;;;;;;;;5069546;28;20037;-66
2022/12/28 01:43:14;;;;;;;17.37;7.90;;;;;;;;;;5067897;28;20056;-67
2022/12/28 01:45:41;;;;;;;15.57;7.30;;;;;;;;;;5066437;28;20114;-67
2022/12/28 01:48:16;;;;;;;15.50;7.73;;;;;;;;;;5069243;28;20056;-67
2022/12/28 01:50:42;;;;;;;13.23;7.80;;;;;;;;;;5067573;28;20045;-66
2022/12/28 01:53:09;;;;;;;15.50;7.87;;;;;;;;;;5055776;28;20049;-66
2022/12/28 01:55:35;;;;;;;13.70;7.93;;;;;;;;;;5048644;28;20416;-67
2022/12/28 01:58:01;;;;;;;18.10;7.80;;;;;;;;;;5048981;28;20041;-67
2022/12/28 02:00:28;;;;;;;15.40;6.60;;;;;;;;;;5048659;28;20618;-67
2022/12/28 02:02:56;;;;;;;18.60;7.70;;;;;;;;;;5049231;28;20140;-67
2022/12/28 02:05:25;;;;;;;20.00;8.23;;;;;;;;;;5057877;28;20125;-67
2022/12/28 02:07:53;;;;;;;17.20;7.50;;;;;;;;;;5068761;28;20098;-66
2022/12/28 02:10:20;;;;;;;14.50;7.47;;;;;;;;;;5067672;28;20167;-67
2022/12/28 02:12:46;;;;;;;18.93;7.97;;;;;;;;;;5069095;28;20163;-67
2022/12/28 02:15:12;;;;;;;16.07;8.90;;;;;;;;;;5061077;28;20388;-67
2022/12/28 02:17:38;;;;;;;13.57;8.70;;;;;;;;;;5048852;28;20056;-68
2022/12/28 02:20:05;;;;;;;17.50;9.63;;;;;;;;;;5048878;28;20056;-68
2022/12/28 02:22:50;;;;;;;19.40;10.77;;;;;;;;;;5048282;28;20641;-68
2022/12/28 02:25:18;;;;;;;21.60;11.17;;;;;;;;;;5048515;28;20049;-68
2022/12/28 02:27:59;;;;;;;20.93;11.20;;;;;;;;;;5047459;28;20049;-67
2022/12/28 02:30:25;;;;;;;19.57;10.87;;;;;;;;;;5048496;28;20037;-67
2022/12/28 02:32:57;;;;;;;20.67;10.93;;;;;;;;;;5047201;28;20067;-68
2022/12/28 02:35:28;;;;;;;26.70;12.43;;;;;;;;;;5056116;28;20052;-68
2022/12/28 02:38:04;;;;;;;29.77;12.77;;;;;;;;;;5067076;28;20056;-67
2022/12/28 02:40:54;;;;;;;27.83;12.50;;;;;;;;;;5067122;28;20147;-68
2022/12/28 02:43:20;;;;;;;20.83;11.73;;;;;;;;;;5062432;28;20082;-68
2022/12/28 02:51:49;;;;;;;25.23;12.57;;;;;;;;;;5048171;28;20095;-67
2022/12/28 02:57:15;;;;;;;17.57;10.33;;;;;;;;;;5067988;28;20052;-67
2022/12/28 03:00:00;;;;;;;20.20;10.43;;;;;;;;;;5066861;28;20139;-67
2022/12/28 03:02:41;;;;;;;22.80;10.67;;;;;;;;;;5059337;28;20640;-67
2022/12/28 03:05:17;;;;;;;20.83;10.00;;;;;;;;;;5047864;28;20053;-67
2022/12/28 03:10:44;;;;;;;14.13;9.10;;;;;;;;;;5048157;28;20044;-67
2022/12/28 03:16:03;;;;;;;21.33;10.17;;;;;;;;;;5067398;28;20053;-67
2022/12/28 03:32:24;;;;;;;18.87;9.67;;;;;;;;;;5071879;28;20052;-67
2022/12/28 03:34:50;;;;;;;20.30;9.80;;;;;;;;;;5071021;28;20099;-68
2022/12/28 03:37:29;;;;;;;21.77;11.67;;;;;;;;;;5071483;28;20056;-68
2022/12/28 03:39:58;;;;;;;15.97;10.10;;;;;;;;;;5070422;28;20045;-68
2022/12/28 03:45:22;;;;;;;18.43;10.43;;;;;;;;;;5058779;28;20060;-68
2022/12/28 03:47:50;;;;;;;16.13;10.47;;;;;;;;;;5051489;28;20056;-68
2022/12/28 03:50:16;;;;;;;21.53;11.77;;;;;;;;;;5049574;28;20041;-67
2022/12/28 03:52:43;;;;;;;17.60;10.07;;;;;;;;;;5051290;28;20048;-67
2022/12/28 03:55:10;;;;;;;25.87;10.97;;;;;;;;;;5051090;28;20408;-68
2022/12/28 03:57:36;;;;;;;19.87;11.57;;;;;;;;;;5051453;28;20045;-68
2022/12/28 04:00:03;;;;;;;17.83;10.63;;;;;;;;;;5050101;28;20049;-68
2022/12/28 04:02:29;;;;;;;16.10;10.87;;;;;;;;;;5051522;28;20392;-68
2022/12/28 04:04:55;;;;;;;17.80;11.47;;;;;;;;;;5059518;28;20101;-68
2022/12/28 04:07:21;;;;;;;21.10;11.10;;;;;;;;;;5071334;28;20037;-67
2022/12/28 04:09:47;;;;;;;17.03;10.40;;;;;;;;;;5069726;28;20407;-67
2022/12/28 04:12:13;;;;;;;18.23;9.63;;;;;;;;;;5070684;28;20051;-68
2022/12/28 04:14:39;;;;;;;18.63;10.13;;;;;;;;;;5070116;28;20456;-67
2022/12/28 04:17:05;;;;;;;25.43;11.93;;;;;;;;;;5069599;28;20057;-67
2022/12/28 04:19:31;;;;;;;17.27;10.33;;;;;;;;;;5071141;28;20477;-67
2022/12/28 04:21:57;;;;;;;15.67;9.80;;;;;;;;;;5070634;28;20053;-68
2022/12/28 04:24:23;;;;;;;17.87;11.10;;;;;;;;;;5065470;28;20048;-67
2022/12/28 04:26:49;;;;;;;17.63;10.17;;;;;;;;;;5049416;28;20559;-67
2022/12/28 04:29:15;;;;;;;17.43;9.63;;;;;;;;;;5049519;28;20128;-68
2022/12/28 04:31:41;;;;;;;18.83;10.37;;;;;;;;;;5050495;28;20051;-67
2022/12/28 04:34:07;;;;;;;15.77;10.53;;;;;;;;;;5051674;28;20139;-67
2022/12/28 04:36:33;;;;;;;13.97;8.80;;;;;;;;;;5070650;28;20055;-67
2022/12/28 04:39:00;;;;;;;16.40;9.50;;;;;;;;;;5052533;28;20410;-67
2022/12/28 04:41:26;;;;;;;18.50;9.40;;;;;;;;;;5064781;28;20136;-68
2022/12/28 04:43:54;;;;;;;14.93;9.10;;;;;;;;;;5050464;28;20128;-67
2022/12/28 04:46:20;;;;;;;16.43;8.73;;;;;;;;;;5049793;28;20542;-68
2022/12/28 04:48:46;;;;;;;25.77;11.57;;;;;;;;;;5048774;28;20387;-68
2022/12/28 04:51:16;;;;;;;19.57;9.70;;;;;;;;;;5050139;28;20048;-67
2022/12/28 04:53:42;;;;;;;18.50;10.20;;;;;;;;;;5050227;28;20087;-68
2022/12/28 04:56:09;;;;;;;17.70;9.97;;;;;;;;;;5067718;28;20794;-68
2022/12/28 04:58:36;;;;;;;14.73;9.33;;;;;;;;;;5069934;28;20055;-67
2022/12/28 05:01:03;;;;;;;15.63;10.57;;;;;;;;;;5070139;28;20098;-68
2022/12/28 05:03:29;;;;;;;16.20;9.60;;;;;;;;;;5070083;28;20127;-67
2022/12/28 05:05:59;;;;;;;18.47;10.33;;;;;;;;;;5069197;28;20048;-67
2022/12/28 05:08:25;;;;;;;16.03;10.33;;;;;;;;;;5069473;28;20525;-68
2022/12/28 05:10:51;;;;;;;16.30;9.50;;;;;;;;;;5070258;28;20498;-67
2022/12/28 05:13:17;;;;;;;15.77;9.50;;;;;;;;;;5069687;28;20040;-68
2022/12/28 05:15:43;;;;;;;18.60;10.53;;;;;;;;;;5054179;28;20052;-67
2022/12/28 05:18:09;;;;;;;16.57;10.13;;;;;;;;;;5049168;28;20183;-68
2022/12/28 05:20:35;;;;;;;17.23;11.13;;;;;;;;;;5048279;28;20086;-68
2022/12/28 05:23:01;;;;;;;15.50;10.57;;;;;;;;;;5049655;28;20088;-67
2022/12/28 05:25:27;;;;;;;22.03;12.50;;;;;;;;;;5048548;28;20517;-67
2022/12/28 05:27:54;;;;;;;18.50;10.70;;;;;;;;;;5049367;28;20055;-67
2022/12/28 05:30:20;;;;;;;21.30;11.57;;;;;;;;;;5049681;28;20407;-67
2022/12/28 05:32:46;;;;;;;19.47;11.47;;;;;;;;;;5047856;28;20048;-67
2022/12/28 05:35:12;;;;;;;24.53;13.03;;;;;;;;;;5048759;28;20064;-67
2022/12/28 05:37:38;;;;;;;16.87;10.70;;;;;;;;;;5049266;28;20049;-67
2022/12/28 05:40:04;;;;;;;15.07;11.43;;;;;;;;;;5041864;28;20051;-67
2022/12/28 05:42:31;;;;;;;21.00;13.00;;;;;;;;;;5049655;28;20049;-67
2022/12/28 05:44:57;;;;;;;18.30;11.70;;;;;;;;;;5049100;28;20061;-68
2022/12/28 05:47:23;;;;;;;22.93;12.53;;;;;;;;;;5048980;28;20113;-67
2022/12/28 05:49:49;;;;;;;21.50;12.70;;;;;;;;;;5048250;28;20040;-67
2022/12/28 05:52:15;;;;;;;23.40;13.60;;;;;;;;;;5060007;28;20460;-68
2022/12/28 05:54:41;;;;;;;20.93;13.17;;;;;;;;;;5066983;28;20041;-67
2022/12/28 05:57:07;;;;;;;24.83;13.77;;;;;;;;;;5065658;28;20103;-68
2022/12/28 05:59:33;;;;;;;19.57;13.37;;;;;;;;;;5064893;28;20414;-68
2022/12/28 06:01:59;;;;;;;21.57;13.50;;;;;;;;;;5053853;28;20068;-68
2022/12/28 06:04:25;;;;;;;30.30;16.03;;;;;;;;;;5046365;28;20087;-68
2022/12/28 06:06:53;;;;;;;22.83;14.30;;;;;;;;;;5048007;28;20500;-68
2022/12/28 06:09:19;;;;;;;23.60;14.17;;;;;;;;;;5030672;28;20045;-68
2022/12/28 06:11:45;;;;;;;23.40;13.73;;;;;;;;;;5048228;28;20116;-68
2022/12/28 06:14:11;;;;;;;25.33;14.30;;;;;;;;;;5048055;28;20518;-68
2022/12/28 06:16:39;;;;;;;31.07;16.60;;;;;;;;;;5047376;28;20110;-68
2022/12/28 06:19:06;;;;;;;22.13;14.10;;;;;;;;;;5048626;28;20045;-68
2022/12/28 06:21:33;;;;;;;19.27;13.37;;;;;;;;;;5054806;28;20047;-68
2022/12/28 06:24:00;;;;;;;22.27;13.23;;;;;;;;;;5068667;28;20095;-68
2022/12/28 06:26:27;;;;;;;23.17;14.53;;;;;;;;;;5068150;28;20041;-68
2022/12/28 06:28:53;;;;;;;25.63;15.73;;;;;;;;;;5064528;28;20495;-68
2022/12/28 06:31:20;;;;;;;20.47;14.53;;;;;;;;;;5066188;28;20506;-68
2022/12/28 06:33:47;;;;;;;22.40;14.63;;;;;;;;;;5068538;28;20048;-68
2022/12/28 06:36:14;;;;;;;25.77;14.60;;;;;;;;;;5068098;28;20040;-68
2022/12/28 06:38:40;;;;;;;27.40;15.27;;;;;;;;;;5066695;28;20055;-68
2022/12/28 06:41:07;;;;;;;23.23;15.67;;;;;;;;;;5066248;28;20048;-68
2022/12/28 06:43:34;;;;;;;28.73;17.07;;;;;;;;;;5068551;28;20093;-68
2022/12/28 06:46:00;;;;;;;21.80;15.47;;;;;;;;;;5066862;28;20048;-68
2022/12/28 06:48:27;;;;;;;22.00;15.57;;;;;;;;;;5062420;28;20056;-68
2022/12/28 06:50:56;;;;;;;25.47;15.17;;;;;;;;;;5034281;28;20045;-68
2022/12/28 06:53:23;;;;;;;21.70;15.47;;;;;;;;;;5034373;28;20037;-68
2022/12/28 06:55:56;;;;;;;22.27;15.10;;;;;;;;;;5051329;28;20740;-68
2022/12/28 06:58:23;;;;;;;29.70;16.77;;;;;;;;;;5052690;28;20045;-68
2022/12/28 07:00:49;;;;;;;28.27;15.47;;;;;;;;;;5051046;28;20419;-68
2022/12/28 07:03:15;;;;;;;24.07;14.87;;;;;;;;;;5050895;28;20049;-68
2022/12/28 07:05:41;;;;;;;21.00;15.27;;;;;;;;;;5057436;28;20048;-68
2022/12/28 07:08:07;;;;;;;23.47;15.93;;;;;;;;;;5068733;28;20048;-68
2022/12/28 07:10:34;;;;;;;23.17;15.87;;;;;;;;;;5050876;28;20480;-68
2022/12/28 07:13:00;;;;;;;34.07;18.67;;;;;;;;;;5034357;28;20049;-68
2022/12/28 07:15:26;;;;;;;27.93;16.37;;;;;;;;;;5063624;28;20078;-67
2022/12/28 07:17:52;;;;;;;20.63;14.80;;;;;;;;;;5052745;28;20045;-68
2022/12/28 07:20:18;;;;;;;21.80;14.93;;;;;;;;;;5052041;28;20049;-67
2022/12/28 07:22:44;;;;;;;25.07;15.60;;;;;;;;;;5050044;28;20549;-68
2022/12/28 07:25:10;;;;;;;28.77;16.93;;;;;;;;;;5050554;28;20471;-68
2022/12/28 07:27:36;;;;;;;19.90;14.13;;;;;;;;;;5051466;28;20045;-68
2022/12/28 07:30:03;;;;;;;23.60;15.33;;;;;;;;;;5057519;28;20101;-68
2022/12/28 07:32:29;;;;;;;25.23;16.17;;;;;;;;;;5068981;28;20048;-68
2022/12/28 07:34:55;;;;;;;19.17;15.27;;;;;;;;;;5050960;28;20044;-68
2022/12/28 07:37:21;;;;;;;25.47;16.43;;;;;;;;;;5050090;28;20053;-68
2022/12/28 07:39:47;;;;;;;32.37;19.17;;;;;;;;;;5067980;28;20871;-68
2022/12/28 07:42:13;;;;;;;31.57;17.43;;;;;;;;;;5071110;28;20076;-68
2022/12/28 07:44:40;;;;;;;21.33;16.00;;;;;;;;;;5069389;28;20059;-68
2022/12/28 07:47:06;;;;;;;28.13;16.87;;;;;;;;;;5071023;28;20055;-68
2022/12/28 07:49:33;;;;;;;24.60;15.60;;;;;;;;;;5056552;28;20430;-67
2022/12/28 07:51:59;;;;;;;19.60;15.93;;;;;;;;;;5051241;28;20147;-67
2022/12/28 07:54:25;;;;;;;30.80;16.23;;;;;;;;;;5048926;28;20112;-67
2022/12/28 07:56:51;;;;;;;30.53;17.20;;;;;;;;;;5050951;28;20102;-68
2022/12/28 07:59:17;;;;;;;24.73;16.73;;;;;;;;;;5062708;28;20048;-68
2022/12/28 08:01:43;;;;;;;24.47;15.70;;;;;;;;;;5069654;28;20036;-67
2022/12/28 08:04:11;;;;;;;28.80;17.87;;;;;;;;;;5050957;28;20106;-68
2022/12/28 08:06:38;;;;;;;21.87;16.17;;;;;;;;;;5067206;28;20037;-68
2022/12/28 08:09:05;;;;;;;24.27;17.27;;;;;;;;;;5066594;28;20422;-68
2022/12/28 08:11:32;;;;;;;28.00;17.67;;;;;;;;;;5068130;28;20036;-68
2022/12/28 08:13:59;;;;;;;37.40;20.23;;;;;;;;;;5071080;28;20049;-68
2022/12/28 08:16:27;;;;;;;32.70;19.43;;;;;;;;;;5070998;28;20051;-68
2022/12/28 08:18:53;;;;;;;33.53;17.73;;;;;;;;;;5068336;28;20076;-68
2022/12/28 08:21:21;;;;;;;30.37;17.37;;;;;;;;;;5048922;28;20067;-68
2022/12/28 08:23:47;;;;;;;30.53;18.53;;;;;;;;;;5049226;28;20049;-68
2022/12/28 08:26:15;;;;;;;37.20;19.17;;;;;;;;;;5049216;28;20457;-69
2022/12/28 08:28:41;;;;;;;38.87;19.73;;;;;;;;;;5049553;28;20052;-69
2022/12/28 08:31:08;;;;;;;28.70;17.43;;;;;;;;;;5050046;28;20045;-68
2022/12/28 08:33:35;;;;;;;39.30;19.00;;;;;;;;;;5054948;28;20045;-68
2022/12/28 08:36:01;;;;;;;29.60;17.47;;;;;;;;;;5062029;28;20117;-68
2022/12/28 08:38:27;;;;;;;30.67;17.23;;;;;;;;;;5066846;28;20052;-68
2022/12/28 08:40:57;;;;;;;26.77;15.60;;;;;;;;;;5068088;28;20056;-68
2022/12/28 08:43:23;;;;;;;24.20;15.83;;;;;;;;;;5069865;28;20055;-68
2022/12/28 08:45:59;;;;;;;26.57;15.87;;;;;;;;;;5067575;28;20049;-68
2022/12/28 08:48:26;;;;;;;26.87;16.07;;;;;;;;;;5066628;28;20430;-68
2022/12/28 08:50:52;;;;;;;33.53;17.10;;;;;;;;;;5061246;28;20045;-68
2022/12/28 08:53:18;;;;;;;24.10;14.77;;;;;;;;;;5067645;28;20134;-68
2022/12/28 08:55:44;;;;;;;27.03;15.20;;;;;;;;;;5068630;28;20160;-68
2022/12/28 08:58:10;;;;;;;24.13;14.87;;;;;;;;;;5068721;28;20045;-67
2022/12/28 09:00:36;;;;;;;20.70;12.67;;;;;;;;;;5067203;28;20066;-67
2022/12/28 09:03:02;;;;;;;27.27;14.97;;;;;;;;;;5049811;28;20053;-68
2022/12/28 09:05:28;;;;;;;20.83;14.13;;;;;;;;;;5069760;28;20105;-67
2022/12/28 09:07:54;;;;;;;21.07;14.47;;;;;;;;;;5061698;28;20049;-67
2022/12/28 09:10:20;;;;;;;25.10;15.17;;;;;;;;;;5055101;28;20045;-68
2022/12/28 09:12:46;;;;;;;34.27;15.07;;;;;;;;;;5068749;28;20052;-68
2022/12/28 09:15:12;;;;;;;24.83;14.00;;;;;;;;;;5066781;28;20048;-68
2022/12/28 09:17:38;;;;;;;23.13;14.13;;;;;;;;;;5050453;28;20055;-68
2022/12/28 09:20:04;;;;;;;25.17;15.27;;;;;;;;;;5057855;28;20051;-68
2022/12/28 09:22:31;;;;;;;32.37;15.73;;;;;;;;;;5066002;28;20121;-68
2022/12/28 09:24:57;;;;;;;28.77;15.57;;;;;;;;;;5067750;28;20040;-68
2022/12/28 09:27:23;;;;;;;24.47;15.07;;;;;;;;;;5062195;28;20049;-68
2022/12/28 09:29:49;;;;;;;22.23;13.77;;;;;;;;;;5060703;28;20519;-68
2022/12/28 09:32:15;;;;;;;19.50;13.97;;;;;;;;;;5066812;28;20089;-67
2022/12/28 09:34:41;;;;;;;28.43;14.67;;;;;;;;;;5067421;28;20064;-68
2022/12/28 09:37:07;;;;;;;24.33;14.70;;;;;;;;;;5052534;28;20044;-68
2022/12/28 09:39:33;;;;;;;28.97;16.43;;;;;;;;;;5057312;28;20435;-68
2022/12/28 09:41:59;;;;;;;30.83;16.47;;;;;;;;;;5067749;28;20517;-68
2022/12/28 09:44:37;;;;;;;20.70;14.53;;;;;;;;;;5060110;28;20049;-68
2022/12/28 09:47:12;;;;;;;23.90;14.83;;;;;;;;;;5059916;28;20427;-67
2022/12/28 09:49:41;;;;;;;25.27;16.00;;;;;;;;;;5067445;28;20162;-67
2022/12/28 09:52:24;;;;;;;31.27;17.77;;;;;;;;;;5059652;28;20570;-68
2022/12/28 09:54:50;;;;;;;34.13;17.13;;;;;;;;;;5059261;28;20045;-68
2022/12/28 09:57:18;;;;;;;30.23;16.00;;;;;;;;;;5049574;28;20423;-68
2022/12/28 09:59:44;;;;;;;30.00;16.77;;;;;;;;;;5054891;28;20049;-68
2022/12/28 10:02:30;;;;;;;27.53;16.27;;;;;;;;;;5064257;28;20420;-68
2022/12/28 10:04:56;;;;;;;30.47;16.40;;;;;;;;;;5066567;28;20052;-68
2022/12/28 10:07:22;;;;;;;29.23;15.23;;;;;;;;;;5066233;28;20061;-68
2022/12/28 10:09:49;;;;;;;28.87;16.50;;;;;;;;;;5055538;28;20037;-68
2022/12/28 10:12:17;;;;;;;31.57;17.17;;;;;;;;;;5049683;28;20126;-68
2022/12/28 10:14:45;;;;;;;31.23;17.80;;;;;;;;;;5063885;28;20048;-68
2022/12/28 10:17:12;;;;;;;29.97;16.00;;;;;;;;;;5061415;28;20129;-68
2022/12/28 10:19:39;;;;;;;40.93;18.90;;;;;;;;;;5066492;28;20083;-68
2022/12/28 10:22:10;;;;;;;25.47;15.33;;;;;;;;;;5061665;28;20609;-68
2022/12/28 10:24:38;;;;;;;27.97;14.63;;;;;;;;;;5056863;28;20040;-68
2022/12/28 10:27:05;;;;;;;31.13;15.23;;;;;;;;;;5058147;28;20047;-68
2022/12/28 10:29:32;;;;;;;34.80;16.80;;;;;;;;;;5058163;28;20513;-69
2022/12/28 10:31:59;;;;;;;28.70;14.73;;;;;;;;;;5058363;28;20044;-68
2022/12/28 10:34:26;;;;;;;29.83;14.57;;;;;;;;;;5054715;28;20047;-68
2022/12/28 10:36:52;;;;;;;27.83;14.37;;;;;;;;;;5055694;28;20491;-69
2022/12/28 10:39:24;;;;;;;26.33;14.33;;;;;;;;;;5054995;28;20044;-69
2022/12/28 10:41:51;;;;;;;29.03;14.00;;;;;;;;;;5053546;28;20036;-68
2022/12/28 10:44:31;;;;;;;20.07;12.40;;;;;;;;;;5053675;28;20056;-68
2022/12/28 10:47:00;;;;;;;25.97;12.90;;;;;;;;;;5057013;28;20047;-68
2022/12/28 10:49:27;;;;;;;27.83;13.50;;;;;;;;;;5052658;28;20735;-68
2022/12/28 10:52:01;;;;;;;26.57;13.83;;;;;;;;;;5035875;28;20071;-68
2022/12/28 10:54:30;;;;;;;17.97;10.90;;;;;;;;;;5057174;28;20461;-69
2022/12/28 10:56:56;;;;;;;28.37;12.30;;;;;;;;;;5055094;28;20045;-69
2022/12/28 10:59:24;;;;;;;20.23;12.13;;;;;;;;;;5053130;28;21571;-68
2022/12/28 11:01:50;;;;;;;21.20;10.80;;;;;;;;;;5052897;28;20052;-69
2022/12/28 11:04:20;;;;;;;22.87;11.93;;;;;;;;;;5055410;28;20499;-68
2022/12/28 11:06:54;;;;;;;19.20;10.30;;;;;;;;;;5055727;28;20045;-68
2022/12/28 11:09:22;;;;;;;19.23;10.43;;;;;;;;;;5054973;28;20096;-68
2022/12/28 11:11:49;;;;;;;18.87;10.97;;;;;;;;;;5057182;28;20486;-68
2022/12/28 11:14:17;;;;;;;20.80;11.53;;;;;;;;;;5057341;28;20097;-68
2022/12/28 11:16:43;;;;;;;17.47;9.83;;;;;;;;;;5057489;28;20040;-68
2022/12/28 11:19:11;;;;;;;23.10;10.93;;;;;;;;;;5044278;28;20044;-68
2022/12/28 11:21:37;;;;;;;21.90;10.67;;;;;;;;;;5064064;28;20560;-68
2022/12/28 11:24:03;;;;;;;16.70;10.60;;;;;;;;;;5054259;28;20388;-68
2022/12/28 11:26:30;;;;;;;18.77;10.50;;;;;;;;;;5059337;28;20041;-68
2022/12/28 11:28:56;;;;;;;21.37;10.63;;;;;;;;;;5053424;28;20523;-68
2022/12/28 11:31:25;;;;;;;15.77;9.83;;;;;;;;;;5059650;28;20471;-68
2022/12/28 11:33:54;;;;;;;15.83;8.80;;;;;;;;;;5056501;28;20048;-68
2022/12/28 11:36:21;;;;;;;15.00;8.60;;;;;;;;;;5060037;28;20555;-68
2022/12/28 11:38:49;;;;;;;16.17;8.67;;;;;;;;;;5060262;28;20048;-68
2022/12/28 11:41:26;;;;;;;20.30;11.17;;;;;;;;;;5063232;28;20052;-68
2022/12/28 11:43:56;;;;;;;20.97;10.10;;;;;;;;;;5058757;28;20052;-68
2022/12/28 11:46:22;;;;;;;16.60;9.67;;;;;;;;;;5062039;28;20419;-68
2022/12/28 11:48:58;;;;;;;25.53;11.33;;;;;;;;;;5037856;28;20037;-68
2022/12/28 11:51:31;;;;;;;17.80;10.03;;;;;;;;;;5058111;28;20037;-68
2022/12/28 11:54:02;;;;;;;19.33;9.80;;;;;;;;;;5061104;28;20048;-68
2022/12/28 11:56:43;;;;;;;15.87;9.30;;;;;;;;;;5059630;28;20041;-68
2022/12/28 11:59:32;;;;;;;16.63;10.17;;;;;;;;;;5053398;28;20077;-69
2022/12/28 12:01:59;;;;;;;13.93;9.13;;;;;;;;;;5060045;28;20041;-68
2022/12/28 12:04:31;;;;;;;19.17;10.30;;;;;;;;;;5056548;28;20051;-68
2022/12/28 12:06:57;;;;;;;18.33;10.43;;;;;;;;;;5062575;28;20057;-68
2022/12/28 12:09:41;;;;;;;17.77;9.27;;;;;;;;;;5060001;28;20551;-68
2022/12/28 12:12:13;;;;;;;11.87;8.27;;;;;;;;;;5058390;28;20044;-68
2022/12/28 12:14:44;;;;;;;17.37;9.73;;;;;;;;;;5067176;28;20053;-68
2022/12/28 12:17:15;;;;;;;14.73;8.93;;;;;;;;;;5060536;28;20048;-68
2022/12/28 12:19:46;;;;;;;11.87;8.27;;;;;;;;;;5061242;28;20044;-68
2022/12/28 12:22:15;;;;;;;13.17;8.50;;;;;;;;;;5057673;28;20511;-68
2022/12/28 12:24:44;;;;;;;13.13;8.27;;;;;;;;;;5057824;28;20515;-69
2022/12/28 12:27:31;;;;;;;13.97;7.57;;;;;;;;;;5057632;28;20464;-68
2022/12/28 12:30:00;;;;;;;12.03;7.53;;;;;;;;;;5059945;28;20224;-68
2022/12/28 12:32:45;;;;;;;11.27;6.90;;;;;;;;;;5057180;28;20055;-68
2022/12/28 12:35:13;;;;;;;8.83;6.37;;;;;;;;;;5041781;28;20052;-68
2022/12/28 12:37:42;;;;;;;9.73;6.40;;;;;;;;;;5060485;28;20094;-68
2022/12/28 12:40:08;;;;;;;8.27;6.10;;;;;;;;;;5061769;28;20037;-68
2022/12/28 12:42:40;;;;;;;11.87;6.40;;;;;;;;;;5061241;28;20044;-68
2022/12/28 12:45:21;;;;;;;10.40;5.77;;;;;;;;;;5058658;28;20061;-68
2022/12/28 12:47:53;;;;;;;10.80;6.33;;;;;;;;;;5053374;28;20052;-68
2022/12/28 12:50:34;;;;;;;7.37;5.23;;;;;;;;;;5052605;28;20474;-68
2022/12/28 12:53:20;;;;;;;9.87;5.87;;;;;;;;;;5061277;28;20110;-68
2022/12/28 12:55:52;;;;;;;8.50;5.53;;;;;;;;;;5058721;28;20105;-68
2022/12/28 12:58:44;;;;;;;7.37;4.70;;;;;;;;;;5058067;28;20567;-68
2022/12/28 13:01:29;;;;;;;8.50;4.97;;;;;;;;;;5062381;28;20048;-68
2022/12/28 13:03:57;;;;;;;7.37;4.47;;;;;;;;;;5056128;28;20056;-68
2022/12/28 13:06:25;;;;;;;7.27;3.83;;;;;;;;;;5060458;28;20048;-68
2022/12/28 13:08:54;;;;;;;8.33;4.00;;;;;;;;;;5054947;28;20060;-68
2022/12/28 13:11:21;;;;;;;5.70;3.90;;;;;;;;;;5056954;28;20522;-68
2022/12/28 13:13:48;;;;;;;7.47;4.43;;;;;;;;;;5056016;28;20589;-68
2022/12/28 13:16:16;;;;;;;8.20;4.33;;;;;;;;;;5054993;28;20068;-69
2022/12/28 13:18:51;;;;;;;7.43;3.77;;;;;;;;;;5055045;28;20404;-69
2022/12/28 13:21:19;;;;;;;6.77;4.27;;;;;;;;;;5059250;28;20044;-69
2022/12/28 13:23:45;;;;;;;8.57;3.57;;;;;;;;;;5061337;28;20054;-68
2022/12/28 13:26:12;;;;;;;5.40;3.27;;;;;;;;;;5059462;28;20044;-68
2022/12/28 13:28:45;;;;;;;6.10;4.10;;;;;;;;;;5058895;28;20051;-68
2022/12/28 13:31:21;;;;;;;8.23;4.47;;;;;;;;;;5060707;28;20482;-68
2022/12/28 13:33:55;;;;;;;7.40;4.17;;;;;;;;;;5060235;28;20620;-68
2022/12/28 13:36:21;;;;;;;5.30;3.75;;;;;;;;;;5056465;28;20045;-68
2022/12/28 13:38:47;;;;;;;5.57;2.93;;;;;;;;;;5057201;28;20105;-68
2022/12/28 13:41:22;;;;;;;11.13;5.17;;;;;;;;;;5060335;28;20049;-68
2022/12/28 13:43:51;;;;;;;11.43;4.10;;;;;;;;;;5058288;28;20133;-68
2022/12/28 13:46:19;;;;;;;8.57;4.93;;;;;;;;;;5056143;28;20103;-68
2022/12/28 13:48:47;;;;;;;6.00;4.03;;;;;;;;;;5056988;28;20049;-68
2022/12/28 13:51:15;;;;;;;9.07;4.07;;;;;;;;;;5043542;28;20041;-68
2022/12/28 13:53:43;;;;;;;7.50;4.13;;;;;;;;;;5057039;28;20067;-68
2022/12/28 13:56:11;;;;;;;6.90;4.07;;;;;;;;;;5059721;28;20048;-68
2022/12/28 13:58:40;;;;;;;7.03;4.20;;;;;;;;;;5054973;28;20060;-68
2022/12/28 14:01:09;;;;;;;6.43;3.93;;;;;;;;;;5059387;28;20178;-68
2022/12/28 14:03:38;;;;;;;8.60;4.50;;;;;;;;;;5052762;28;20037;-68
2022/12/28 14:06:05;;;;;;;17.87;12.93;;;;;;;;;;5057402;28;20380;-68
2022/12/28 14:08:35;;;;;;;8.53;5.83;;;;;;;;;;5062144;28;20091;-68
2022/12/28 14:11:02;;;;;;;8.57;5.40;;;;;;;;;;5060903;28;20159;-68
2022/12/28 14:13:30;;;;;;;8.63;5.27;;;;;;;;;;5055878;28;20454;-69
2022/12/28 14:15:56;;;;;;;15.83;6.40;;;;;;;;;;5059769;28;20076;-69
2022/12/28 14:18:22;;;;;;;10.37;5.57;;;;;;;;;;5053441;28;20056;-69
2022/12/28 14:20:49;;;;;;;12.80;7.70;;;;;;;;;;5041424;28;20052;-68
2022/12/28 14:23:19;;;;;;;13.93;7.53;;;;;;;;;;5057512;28;20588;-69
2022/12/28 14:25:45;;;;;;;13.80;6.80;;;;;;;;;;5053716;28;20079;-68
2022/12/28 14:28:23;;;;;;;12.37;6.77;;;;;;;;;;5056159;28;20549;-68
2022/12/28 14:30:53;;;;;;;14.00;6.67;;;;;;;;;;5054577;28;20052;-68
2022/12/28 14:33:20;;;;;;;8.93;6.57;;;;;;;;;;5058345;28;20501;-68
2022/12/28 14:35:50;;;;;;;15.43;7.80;;;;;;;;;;5055843;28;20527;-68
2022/12/28 14:38:19;;;;;;;11.20;7.77;;;;;;;;;;5051926;28;20151;-68
2022/12/28 14:40:51;;;;;;;13.67;8.47;;;;;;;;;;5037623;28;20052;-68
2022/12/28 14:43:22;;;;;;;14.30;7.60;;;;;;;;;;5053760;28;20558;-68
2022/12/28 14:45:48;;;;;;;13.43;7.60;;;;;;;;;;5054649;28;20048;-68
2022/12/28 14:48:41;;;;;;;12.93;7.50;;;;;;;;;;5057590;28;20052;-68
2022/12/28 14:51:16;;;;;;;15.18;8.70;;;;;;;;;;5060048;28;20056;-68
2022/12/28 14:53:43;;;;;;;13.93;7.63;;;;;;;;;;5057298;28;20131;-68
2022/12/28 14:56:10;;;;;;;14.60;7.30;;;;;;;;;;5058923;28;20037;-68
2022/12/28 14:58:39;;;;;;;18.47;8.20;;;;;;;;;;5056446;28;20106;-68
2022/12/28 15:01:08;;;;;;;12.77;7.93;;;;;;;;;;5056280;28;20055;-68